Ashland, ME (04737)

7:30 AM EST on January 25, 2015 (GMT -0500)
Caribou Municipal | Change Station
CLOSE
Current Station
Airport
Location: Caribou,
Elevation: 623 ft
Nearby Weather Stations

Elev 623 ft 46.87 °N, 68.02 °W | Updated 36 minutes ago

Mostly Cloudy
Mostly Cloudy
27 °F
Feels Like 20 °F
N
7
Wind Variable Wind from West

Today
High -- | Low -- °F
--% Chance of Precip.
Yesterday
High -- | Low -- °F
Precip. -- in
7:10 AM 4:31 PM
Waxing Crescent, 32% visible
Pressure 29.12 in
Visibility 10.0 miles
Clouds Mostly Cloudy 2200 ft
Mostly Cloudy 7500 ft
Overcast 9000 ft
Windchill 20 °F
Dew Point 21 °F
Humidity 78%
Rainfall 0.00 in
Snow Depth Not available.
UV 0 out of 12
Pollen .10 out of 12
Air Quality Not available.
Flu Activity Not available.
METAR KCAR 251154Z AUTO 27006KT 10SM BKN022 BKN075 OVC090 M03/M06 A2908 RMK AO2 SLP860 70002 T10281061 11022 21033 52024

More Conditions Fewer Conditions

Pressure 29.12 in
Visibility 10.0 miles
Clouds Mostly Cloudy 2200 ft
Mostly Cloudy 7500 ft
Overcast 9000 ft
Windchill 20 °F
Dew Point 21 °F
Humidity 78%
Rainfall 0.00 in
Snow Depth Not available.
UV 0 out of 12
Pollen .10 out of 12
Air Quality Not available.
Flu Activity Not available.
METAR KCAR 251154Z AUTO 27006KT 10SM BKN022 BKN075 OVC090 M03/M06 A2908 RMK AO2 SLP860 70002 T10281061 11022 21033 52024

More Conditions Fewer Conditions

10-Day Weather Forecast

Almanac

Astronomy

Jan. 25, 2015 Rise Set
Actual Time
Civil Twilight
Nautical Twilight
Astronomical Twilight
Moon
Length of Visible Light
Length of Day
Tomorrow will be .
, % of the Moon is Illuminated

Today's Extremes

State Highs State Lows

Community

WunderPhotos

Upload Photos

1,789,873 photos uploaded!

WunderBlogs® & News

Nearby

Air Quality

  Air Quality AQ Index Pollutant
Not available.

Snow Depth

Station Depth Elevation

Earthquake Activity

City Distance Mag. Time & Date
Minimum magnitude displayed is 2.5.

Coastal Water Temperatures

Place Temperature

Nearby Weather Stations